sensor_id;sensor_type;location;lat;lon;timestamp;P1;durP1;ratioP1;P2;durP2;ratioP2
9445;SDS011;4761;49.490;10.908;2023-07-24T00:00:44;3.30;;;3.00;;
9445;SDS011;4761;49.490;10.908;2023-07-24T00:03:09;3.90;;;3.50;;
9445;SDS011;4761;49.490;10.908;2023-07-24T00:05:35;3.83;;;3.45;;
9445;SDS011;4761;49.490;10.908;2023-07-24T00:08:01;3.88;;;3.42;;
9445;SDS011;4761;49.490;10.908;2023-07-24T00:10:27;4.28;;;3.88;;
9445;SDS011;4761;49.490;10.908;2023-07-24T00:12:52;3.70;;;3.38;;
9445;SDS011;4761;49.490;10.908;2023-07-24T00:15:18;3.78;;;3.47;;
9445;SDS011;4761;49.490;10.908;2023-07-24T00:17:44;6.38;;;3.72;;
9445;SDS011;4761;49.490;10.908;2023-07-24T00:20:09;3.63;;;3.33;;
9445;SDS011;4761;49.490;10.908;2023-07-24T00:22:35;3.97;;;3.58;;
9445;SDS011;4761;49.490;10.908;2023-07-24T00:25:00;3.92;;;3.53;;
9445;SDS011;4761;49.490;10.908;2023-07-24T00:27:26;3.90;;;3.50;;
9445;SDS011;4761;49.490;10.908;2023-07-24T00:29:52;5.82;;;3.83;;
9445;SDS011;4761;49.490;10.908;2023-07-24T00:32:18;4.45;;;4.05;;
9445;SDS011;4761;49.490;10.908;2023-07-24T00:34:43;4.40;;;3.85;;
9445;SDS011;4761;49.490;10.908;2023-07-24T00:37:09;3.65;;;3.35;;
9445;SDS011;4761;49.490;10.908;2023-07-24T00:39:34;4.03;;;3.67;;
9445;SDS011;4761;49.490;10.908;2023-07-24T00:42:00;4.13;;;3.72;;
9445;SDS011;4761;49.490;10.908;2023-07-24T00:44:26;4.28;;;3.88;;
9445;SDS011;4761;49.490;10.908;2023-07-24T00:46:51;4.18;;;3.70;;
9445;SDS011;4761;49.490;10.908;2023-07-24T00:49:18;5.65;;;3.92;;
9445;SDS011;4761;49.490;10.908;2023-07-24T00:51:44;4.40;;;4.00;;
9445;SDS011;4761;49.490;10.908;2023-07-24T00:54:10;4.18;;;3.78;;
9445;SDS011;4761;49.490;10.908;2023-07-24T00:56:36;4.15;;;3.67;;
9445;SDS011;4761;49.490;10.908;2023-07-24T00:59:02;4.65;;;3.92;;
9445;SDS011;4761;49.490;10.908;2023-07-24T01:01:28;4.35;;;3.95;;
9445;SDS011;4761;49.490;10.908;2023-07-24T01:03:54;4.85;;;4.20;;
9445;SDS011;4761;49.490;10.908;2023-07-24T01:06:23;4.20;;;3.78;;
9445;SDS011;4761;49.490;10.908;2023-07-24T01:08:48;5.10;;;4.20;;
9445;SDS011;4761;49.490;10.908;2023-07-24T01:11:24;5.40;;;4.03;;
9445;SDS011;4761;49.490;10.908;2023-07-24T01:13:58;5.15;;;4.10;;
9445;SDS011;4761;49.490;10.908;2023-07-24T01:16:45;5.25;;;3.58;;
9445;SDS011;4761;49.490;10.908;2023-07-24T01:19:20;5.28;;;4.15;;
9445;SDS011;4761;49.490;10.908;2023-07-24T01:22:01;6.10;;;4.60;;
9445;SDS011;4761;49.490;10.908;2023-07-24T01:27:26;5.70;;;4.38;;
9445;SDS011;4761;49.490;10.908;2023-07-24T01:29:51;5.68;;;4.53;;
9445;SDS011;4761;49.490;10.908;2023-07-24T01:32:17;4.57;;;4.15;;
9445;SDS011;4761;49.490;10.908;2023-07-24T01:34:44;6.32;;;4.25;;
9445;SDS011;4761;49.490;10.908;2023-07-24T01:37:09;5.03;;;4.50;;
9445;SDS011;4761;49.490;10.908;2023-07-24T01:39:37;6.05;;;4.78;;
9445;SDS011;4761;49.490;10.908;2023-07-24T01:42:05;4.78;;;4.25;;
9445;SDS011;4761;49.490;10.908;2023-07-24T01:44:31;5.30;;;4.20;;
9445;SDS011;4761;49.490;10.908;2023-07-24T01:46:56;4.55;;;4.15;;
9445;SDS011;4761;49.490;10.908;2023-07-24T01:49:22;6.25;;;4.75;;
9445;SDS011;4761;49.490;10.908;2023-07-24T01:51:47;4.68;;;4.20;;
9445;SDS011;4761;49.490;10.908;2023-07-24T01:54:13;4.18;;;3.78;;
9445;SDS011;4761;49.490;10.908;2023-07-24T01:56:39;5.53;;;4.43;;
9445;SDS011;4761;49.490;10.908;2023-07-24T01:59:04;4.68;;;3.95;;
9445;SDS011;4761;49.490;10.908;2023-07-24T02:01:31;4.65;;;3.88;;
9445;SDS011;4761;49.490;10.908;2023-07-24T02:03:56;4.68;;;4.22;;
9445;SDS011;4761;49.490;10.908;2023-07-24T02:06:22;5.13;;;4.45;;
9445;SDS011;4761;49.490;10.908;2023-07-24T02:08:47;5.18;;;4.55;;
9445;SDS011;4761;49.490;10.908;2023-07-24T02:11:14;5.18;;;4.47;;
9445;SDS011;4761;49.490;10.908;2023-07-24T02:13:42;4.45;;;3.88;;
9445;SDS011;4761;49.490;10.908;2023-07-24T02:16:09;5.63;;;4.55;;
9445;SDS011;4761;49.490;10.908;2023-07-24T02:18:36;5.13;;;4.28;;
9445;SDS011;4761;49.490;10.908;2023-07-24T02:21:02;4.78;;;4.38;;
9445;SDS011;4761;49.490;10.908;2023-07-24T02:23:27;5.45;;;4.78;;
9445;SDS011;4761;49.490;10.908;2023-07-24T02:25:53;5.30;;;4.80;;
9445;SDS011;4761;49.490;10.908;2023-07-24T02:28:18;5.10;;;4.50;;
9445;SDS011;4761;49.490;10.908;2023-07-24T02:30:44;5.35;;;4.80;;
9445;SDS011;4761;49.490;10.908;2023-07-24T02:33:11;5.35;;;4.68;;
9445;SDS011;4761;49.490;10.908;2023-07-24T02:35:40;5.47;;;4.90;;
9445;SDS011;4761;49.490;10.908;2023-07-24T02:38:06;5.35;;;4.78;;
9445;SDS011;4761;49.490;10.908;2023-07-24T02:40:33;5.05;;;4.55;;
9445;SDS011;4761;49.490;10.908;2023-07-24T02:42:58;5.18;;;4.57;;
9445;SDS011;4761;49.490;10.908;2023-07-24T02:45:24;5.43;;;4.78;;
9445;SDS011;4761;49.490;10.908;2023-07-24T02:47:50;5.13;;;4.63;;
9445;SDS011;4761;49.490;10.908;2023-07-24T02:50:15;5.50;;;4.90;;
9445;SDS011;4761;49.490;10.908;2023-07-24T02:52:41;5.57;;;4.80;;
9445;SDS011;4761;49.490;10.908;2023-07-24T02:55:06;4.95;;;4.45;;
9445;SDS011;4761;49.490;10.908;2023-07-24T02:57:32;4.78;;;4.28;;
9445;SDS011;4761;49.490;10.908;2023-07-24T02:59:58;5.07;;;4.57;;
9445;SDS011;4761;49.490;10.908;2023-07-24T03:02:24;5.35;;;4.85;;
9445;SDS011;4761;49.490;10.908;2023-07-24T03:04:49;5.78;;;4.55;;
9445;SDS011;4761;49.490;10.908;2023-07-24T03:07:15;4.88;;;4.38;;
9445;SDS011;4761;49.490;10.908;2023-07-24T03:09:40;4.68;;;4.28;;
9445;SDS011;4761;49.490;10.908;2023-07-24T03:12:06;5.00;;;4.35;;
9445;SDS011;4761;49.490;10.908;2023-07-24T03:14:31;4.90;;;4.50;;
9445;SDS011;4761;49.490;10.908;2023-07-24T03:16:57;4.88;;;4.38;;
9445;SDS011;4761;49.490;10.908;2023-07-24T03:19:22;5.32;;;4.82;;
9445;SDS011;4761;49.490;10.908;2023-07-24T03:21:48;5.05;;;4.55;;
9445;SDS011;4761;49.490;10.908;2023-07-24T03:24:13;5.25;;;4.70;;
9445;SDS011;4761;49.490;10.908;2023-07-24T03:26:39;5.03;;;4.53;;
9445;SDS011;4761;49.490;10.908;2023-07-24T03:29:04;5.28;;;4.78;;
9445;SDS011;4761;49.490;10.908;2023-07-24T03:31:30;4.88;;;4.38;;
9445;SDS011;4761;49.490;10.908;2023-07-24T03:33:56;5.10;;;4.60;;
9445;SDS011;4761;49.490;10.908;2023-07-24T03:36:21;4.93;;;4.43;;
9445;SDS011;4761;49.490;10.908;2023-07-24T03:38:47;5.18;;;4.57;;
9445;SDS011;4761;49.490;10.908;2023-07-24T03:41:12;5.43;;;4.93;;
9445;SDS011;4761;49.490;10.908;2023-07-24T03:43:38;5.25;;;4.75;;
9445;SDS011;4761;49.490;10.908;2023-07-24T03:46:03;5.15;;;4.65;;
9445;SDS011;4761;49.490;10.908;2023-07-24T03:48:29;4.93;;;4.45;;
9445;SDS011;4761;49.490;10.908;2023-07-24T03:50:58;5.13;;;4.63;;
9445;SDS011;4761;49.490;10.908;2023-07-24T03:53:25;5.40;;;4.90;;
9445;SDS011;4761;49.490;10.908;2023-07-24T03:55:50;5.80;;;5.18;;
9445;SDS011;4761;49.490;10.908;2023-07-24T03:58:16;5.55;;;4.45;;
9445;SDS011;4761;49.490;10.908;2023-07-24T04:00:42;5.35;;;4.85;;
9445;SDS011;4761;49.490;10.908;2023-07-24T04:03:07;5.22;;;4.72;;
9445;SDS011;4761;49.490;10.908;2023-07-24T04:05:34;5.43;;;4.80;;
9445;SDS011;4761;49.490;10.908;2023-07-24T04:08:00;4.68;;;4.28;;
9445;SDS011;4761;49.490;10.908;2023-07-24T04:10:25;5.68;;;5.15;;
9445;SDS011;4761;49.490;10.908;2023-07-24T04:12:51;5.55;;;5.05;;
9445;SDS011;4761;49.490;10.908;2023-07-24T04:15:17;5.22;;;4.72;;
9445;SDS011;4761;49.490;10.908;2023-07-24T04:17:42;5.70;;;5.15;;
9445;SDS011;4761;49.490;10.908;2023-07-24T04:20:08;5.38;;;4.88;;
9445;SDS011;4761;49.490;10.908;2023-07-24T04:22:34;5.65;;;5.05;;
9445;SDS011;4761;49.490;10.908;2023-07-24T04:24:59;5.38;;;4.80;;
9445;SDS011;4761;49.490;10.908;2023-07-24T04:27:25;5.30;;;4.80;;
9445;SDS011;4761;49.490;10.908;2023-07-24T04:29:51;5.63;;;5.03;;
9445;SDS011;4761;49.490;10.908;2023-07-24T04:32:16;5.35;;;4.80;;
9445;SDS011;4761;49.490;10.908;2023-07-24T04:34:42;5.75;;;5.18;;
9445;SDS011;4761;49.490;10.908;2023-07-24T04:37:07;5.30;;;4.80;;
9445;SDS011;4761;49.490;10.908;2023-07-24T04:39:33;5.35;;;4.85;;
9445;SDS011;4761;49.490;10.908;2023-07-24T04:41:58;5.25;;;4.70;;
9445;SDS011;4761;49.490;10.908;2023-07-24T04:44:24;5.18;;;4.65;;
9445;SDS011;4761;49.490;10.908;2023-07-24T04:46:50;5.72;;;5.13;;
9445;SDS011;4761;49.490;10.908;2023-07-24T04:49:15;5.88;;;5.03;;
9445;SDS011;4761;49.490;10.908;2023-07-24T04:51:41;5.68;;;5.10;;
9445;SDS011;4761;49.490;10.908;2023-07-24T04:54:06;5.25;;;4.75;;
9445;SDS011;4761;49.490;10.908;2023-07-24T04:56:32;5.70;;;5.18;;
9445;SDS011;4761;49.490;10.908;2023-07-24T04:58:57;5.55;;;4.85;;
9445;SDS011;4761;49.490;10.908;2023-07-24T05:01:23;6.28;;;5.22;;
9445;SDS011;4761;49.490;10.908;2023-07-24T05:03:48;5.93;;;5.32;;
9445;SDS011;4761;49.490;10.908;2023-07-24T05:06:14;6.38;;;5.25;;
9445;SDS011;4761;49.490;10.908;2023-07-24T05:08:39;5.53;;;5.03;;
9445;SDS011;4761;49.490;10.908;2023-07-24T05:11:05;5.30;;;4.80;;
9445;SDS011;4761;49.490;10.908;2023-07-24T05:13:30;5.30;;;4.80;;
9445;SDS011;4761;49.490;10.908;2023-07-24T05:15:56;6.32;;;5.40;;
9445;SDS011;4761;49.490;10.908;2023-07-24T05:18:21;6.18;;;5.50;;
9445;SDS011;4761;49.490;10.908;2023-07-24T05:20:48;6.18;;;5.45;;
9445;SDS011;4761;49.490;10.908;2023-07-24T05:23:16;6.47;;;5.43;;
9445;SDS011;4761;49.490;10.908;2023-07-24T05:25:41;6.00;;;5.40;;
9445;SDS011;4761;49.490;10.908;2023-07-24T05:28:07;6.00;;;5.40;;
9445;SDS011;4761;49.490;10.908;2023-07-24T05:30:33;5.68;;;5.07;;
9445;SDS011;4761;49.490;10.908;2023-07-24T05:32:59;5.97;;;5.22;;
9445;SDS011;4761;49.490;10.908;2023-07-24T05:35:25;5.75;;;5.15;;
9445;SDS011;4761;49.490;10.908;2023-07-24T05:37:50;5.97;;;5.38;;
9445;SDS011;4761;49.490;10.908;2023-07-24T05:40:16;6.03;;;5.28;;
9445;SDS011;4761;49.490;10.908;2023-07-24T05:42:41;6.30;;;5.13;;
9445;SDS011;4761;49.490;10.908;2023-07-24T05:45:08;6.00;;;5.40;;
9445;SDS011;4761;49.490;10.908;2023-07-24T05:47:36;5.85;;;5.10;;
9445;SDS011;4761;49.490;10.908;2023-07-24T05:50:02;6.40;;;5.70;;
9445;SDS011;4761;49.490;10.908;2023-07-24T05:52:28;6.82;;;5.72;;
9445;SDS011;4761;49.490;10.908;2023-07-24T05:54:53;6.47;;;5.60;;
9445;SDS011;4761;49.490;10.908;2023-07-24T05:57:19;6.78;;;5.05;;
9445;SDS011;4761;49.490;10.908;2023-07-24T05:59:45;5.85;;;5.25;;
9445;SDS011;4761;49.490;10.908;2023-07-24T06:02:10;6.47;;;5.40;;
9445;SDS011;4761;49.490;10.908;2023-07-24T06:04:36;5.70;;;5.10;;
9445;SDS011;4761;49.490;10.908;2023-07-24T06:07:01;6.47;;;5.70;;
9445;SDS011;4761;49.490;10.908;2023-07-24T06:09:27;6.32;;;5.50;;
9445;SDS011;4761;49.490;10.908;2023-07-24T06:11:53;6.38;;;5.68;;
9445;SDS011;4761;49.490;10.908;2023-07-24T06:14:18;6.15;;;5.55;;
9445;SDS011;4761;49.490;10.908;2023-07-24T06:16:44;6.07;;;5.45;;
9445;SDS011;4761;49.490;10.908;2023-07-24T06:19:09;5.75;;;5.18;;
9445;SDS011;4761;49.490;10.908;2023-07-24T06:21:35;6.55;;;5.45;;
9445;SDS011;4761;49.490;10.908;2023-07-24T06:24:00;6.38;;;5.32;;
9445;SDS011;4761;49.490;10.908;2023-07-24T06:26:26;6.63;;;5.53;;
9445;SDS011;4761;49.490;10.908;2023-07-24T06:28:51;5.75;;;5.15;;
9445;SDS011;4761;49.490;10.908;2023-07-24T06:31:17;6.22;;;5.63;;
9445;SDS011;4761;49.490;10.908;2023-07-24T06:33:42;5.70;;;5.10;;
9445;SDS011;4761;49.490;10.908;2023-07-24T06:36:11;6.22;;;5.63;;
9445;SDS011;4761;49.490;10.908;2023-07-24T06:38:36;6.57;;;5.88;;
9445;SDS011;4761;49.490;10.908;2023-07-24T06:41:02;6.68;;;6.00;;
9445;SDS011;4761;49.490;10.908;2023-07-24T06:43:28;6.63;;;5.60;;
9445;SDS011;4761;49.490;10.908;2023-07-24T06:45:53;6.43;;;5.82;;
9445;SDS011;4761;49.490;10.908;2023-07-24T06:48:19;6.15;;;5.55;;
9445;SDS011;4761;49.490;10.908;2023-07-24T06:50:45;6.38;;;5.78;;
9445;SDS011;4761;49.490;10.908;2023-07-24T06:53:10;6.07;;;5.13;;
9445;SDS011;4761;49.490;10.908;2023-07-24T06:55:36;6.40;;;5.80;;
9445;SDS011;4761;49.490;10.908;2023-07-24T06:58:01;5.88;;;5.28;;
9445;SDS011;4761;49.490;10.908;2023-07-24T07:00:27;6.75;;;6.07;;
9445;SDS011;4761;49.490;10.908;2023-07-24T07:02:52;5.93;;;5.32;;
9445;SDS011;4761;49.490;10.908;2023-07-24T07:05:18;5.70;;;5.10;;
9445;SDS011;4761;49.490;10.908;2023-07-24T07:07:43;5.93;;;5.32;;
9445;SDS011;4761;49.490;10.908;2023-07-24T07:10:09;5.55;;;5.05;;
9445;SDS011;4761;49.490;10.908;2023-07-24T07:12:35;7.55;;;5.93;;
9445;SDS011;4761;49.490;10.908;2023-07-24T07:15:00;6.28;;;5.68;;
9445;SDS011;4761;49.490;10.908;2023-07-24T07:17:26;6.53;;;5.80;;
9445;SDS011;4761;49.490;10.908;2023-07-24T07:19:51;8.95;;;5.85;;
9445;SDS011;4761;49.490;10.908;2023-07-24T07:22:17;7.13;;;5.47;;
9445;SDS011;4761;49.490;10.908;2023-07-24T07:24:42;6.20;;;5.50;;
9445;SDS011;4761;49.490;10.908;2023-07-24T07:27:08;6.60;;;5.60;;
9445;SDS011;4761;49.490;10.908;2023-07-24T07:29:34;5.43;;;4.90;;
9445;SDS011;4761;49.490;10.908;2023-07-24T07:32:00;6.15;;;5.55;;
9445;SDS011;4761;49.490;10.908;2023-07-24T07:34:25;6.20;;;5.40;;
9445;SDS011;4761;49.490;10.908;2023-07-24T07:36:51;6.00;;;5.40;;
9445;SDS011;4761;49.490;10.908;2023-07-24T07:39:16;6.65;;;5.75;;
9445;SDS011;4761;49.490;10.908;2023-07-24T07:41:42;6.55;;;5.75;;
9445;SDS011;4761;49.490;10.908;2023-07-24T07:44:08;6.47;;;5.82;;
9445;SDS011;4761;49.490;10.908;2023-07-24T07:46:33;6.10;;;5.50;;
9445;SDS011;4761;49.490;10.908;2023-07-24T07:48:59;6.25;;;5.65;;
9445;SDS011;4761;49.490;10.908;2023-07-24T07:51:24;6.07;;;5.30;;
9445;SDS011;4761;49.490;10.908;2023-07-24T07:53:51;6.38;;;5.75;;
9445;SDS011;4761;49.490;10.908;2023-07-24T07:56:16;5.78;;;5.20;;
9445;SDS011;4761;49.490;10.908;2023-07-24T07:58:42;6.75;;;5.70;;
9445;SDS011;4761;49.490;10.908;2023-07-24T08:01:07;6.20;;;5.38;;
9445;SDS011;4761;49.490;10.908;2023-07-24T08:03:33;6.03;;;5.43;;
9445;SDS011;4761;49.490;10.908;2023-07-24T08:05:59;5.82;;;5.32;;
9445;SDS011;4761;49.490;10.908;2023-07-24T08:08:25;5.82;;;5.22;;
9445;SDS011;4761;49.490;10.908;2023-07-24T08:10:51;6.13;;;5.53;;
9445;SDS011;4761;49.490;10.908;2023-07-24T08:13:16;6.05;;;5.45;;
9445;SDS011;4761;49.490;10.908;2023-07-24T08:15:42;6.53;;;5.85;;
9445;SDS011;4761;49.490;10.908;2023-07-24T08:18:07;5.88;;;5.28;;
9445;SDS011;4761;49.490;10.908;2023-07-24T08:20:36;6.28;;;5.65;;
9445;SDS011;4761;49.490;10.908;2023-07-24T08:23:03;6.53;;;5.65;;
9445;SDS011;4761;49.490;10.908;2023-07-24T08:25:28;6.43;;;4.88;;
9445;SDS011;4761;49.490;10.908;2023-07-24T08:27:54;5.63;;;5.00;;
9445;SDS011;4761;49.490;10.908;2023-07-24T08:30:19;5.88;;;4.93;;
9445;SDS011;4761;49.490;10.908;2023-07-24T08:32:45;5.18;;;4.55;;
9445;SDS011;4761;49.490;10.908;2023-07-24T08:35:10;5.60;;;4.80;;
9445;SDS011;4761;49.490;10.908;2023-07-24T08:37:36;5.85;;;4.15;;
9445;SDS011;4761;49.490;10.908;2023-07-24T08:40:01;6.03;;;4.78;;
9445;SDS011;4761;49.490;10.908;2023-07-24T08:42:27;5.07;;;4.45;;
9445;SDS011;4761;49.490;10.908;2023-07-24T08:44:54;5.65;;;4.60;;
9445;SDS011;4761;49.490;10.908;2023-07-24T08:47:21;5.47;;;4.78;;
9445;SDS011;4761;49.490;10.908;2023-07-24T08:49:47;7.03;;;5.28;;
9445;SDS011;4761;49.490;10.908;2023-07-24T08:52:15;5.80;;;5.00;;
9445;SDS011;4761;49.490;10.908;2023-07-24T08:54:41;6.13;;;4.68;;
9445;SDS011;4761;49.490;10.908;2023-07-24T08:57:07;7.22;;;5.32;;
9445;SDS011;4761;49.490;10.908;2023-07-24T08:59:33;6.15;;;5.30;;
9445;SDS011;4761;49.490;10.908;2023-07-24T09:01:59;6.47;;;5.05;;
9445;SDS011;4761;49.490;10.908;2023-07-24T09:04:25;5.80;;;5.00;;
9445;SDS011;4761;49.490;10.908;2023-07-24T09:06:51;5.80;;;5.20;;
9445;SDS011;4761;49.490;10.908;2023-07-24T09:09:17;8.05;;;5.22;;
9445;SDS011;4761;49.490;10.908;2023-07-24T09:11:47;6.47;;;5.22;;
9445;SDS011;4761;49.490;10.908;2023-07-24T09:14:28;7.40;;;5.70;;
9445;SDS011;4761;49.490;10.908;2023-07-24T09:17:09;6.55;;;5.90;;
9445;SDS011;4761;49.490;10.908;2023-07-24T09:19:36;6.70;;;5.47;;
9445;SDS011;4761;49.490;10.908;2023-07-24T09:24:48;6.47;;;5.10;;
9445;SDS011;4761;49.490;10.908;2023-07-24T09:27:23;6.10;;;5.05;;
9445;SDS011;4761;49.490;10.908;2023-07-24T09:29:51;5.80;;;5.15;;
9445;SDS011;4761;49.490;10.908;2023-07-24T09:32:23;6.03;;;5.43;;
9445;SDS011;4761;49.490;10.908;2023-07-24T09:34:49;6.32;;;5.55;;
9445;SDS011;4761;49.490;10.908;2023-07-24T09:37:27;6.78;;;5.47;;
9445;SDS011;4761;49.490;10.908;2023-07-24T09:39:58;6.15;;;5.55;;
9445;SDS011;4761;49.490;10.908;2023-07-24T09:42:27;6.63;;;5.50;;
9445;SDS011;4761;49.490;10.908;2023-07-24T09:45:00;6.90;;;5.70;;
9445;SDS011;4761;49.490;10.908;2023-07-24T09:47:27;5.80;;;5.20;;
9445;SDS011;4761;49.490;10.908;2023-07-24T09:49:53;6.10;;;5.50;;
9445;SDS011;4761;49.490;10.908;2023-07-24T09:52:19;6.32;;;5.40;;
9445;SDS011;4761;49.490;10.908;2023-07-24T09:55:33;5.95;;;5.18;;
9445;SDS011;4761;49.490;10.908;2023-07-24T09:57:40;5.80;;;5.00;;
9445;SDS011;4761;49.490;10.908;2023-07-24T10:00:07;5.80;;;5.07;;
9445;SDS011;4761;49.490;10.908;2023-07-24T10:02:33;5.45;;;4.90;;
9445;SDS011;4761;49.490;10.908;2023-07-24T10:05:00;5.95;;;4.97;;
9445;SDS011;4761;49.490;10.908;2023-07-24T10:07:26;5.65;;;5.05;;
9445;SDS011;4761;49.490;10.908;2023-07-24T10:09:52;5.50;;;4.95;;
9445;SDS011;4761;49.490;10.908;2023-07-24T10:12:21;6.28;;;5.18;;
9445;SDS011;4761;49.490;10.908;2023-07-24T10:14:47;7.82;;;5.60;;
9445;SDS011;4761;49.490;10.908;2023-07-24T10:17:14;5.78;;;5.25;;
9445;SDS011;4761;49.490;10.908;2023-07-24T10:19:40;5.53;;;5.03;;
9445;SDS011;4761;49.490;10.908;2023-07-24T10:22:08;5.55;;;5.05;;
9445;SDS011;4761;49.490;10.908;2023-07-24T10:24:36;5.50;;;4.93;;
9445;SDS011;4761;49.490;10.908;2023-07-24T10:27:03;5.82;;;5.22;;
9445;SDS011;4761;49.490;10.908;2023-07-24T10:29:33;5.70;;;5.10;;
9445;SDS011;4761;49.490;10.908;2023-07-24T10:31:59;5.75;;;5.25;;
9445;SDS011;4761;49.490;10.908;2023-07-24T10:34:35;5.75;;;5.13;;
9445;SDS011;4761;49.490;10.908;2023-07-24T10:37:02;5.88;;;4.85;;
9445;SDS011;4761;49.490;10.908;2023-07-24T10:39:37;6.43;;;5.00;;
9445;SDS011;4761;49.490;10.908;2023-07-24T10:42:08;5.05;;;4.50;;
9445;SDS011;4761;49.490;10.908;2023-07-24T10:44:34;6.20;;;4.93;;
9445;SDS011;4761;49.490;10.908;2023-07-24T10:47:01;6.10;;;5.15;;
9445;SDS011;4761;49.490;10.908;2023-07-24T10:49:26;5.88;;;4.82;;
9445;SDS011;4761;49.490;10.908;2023-07-24T10:51:55;5.80;;;5.20;;
9445;SDS011;4761;49.490;10.908;2023-07-24T10:54:22;6.22;;;5.38;;
9445;SDS011;4761;49.490;10.908;2023-07-24T10:56:47;5.70;;;5.10;;
9445;SDS011;4761;49.490;10.908;2023-07-24T10:59:13;6.32;;;4.90;;
9445;SDS011;4761;49.490;10.908;2023-07-24T11:01:39;5.85;;;5.22;;
9445;SDS011;4761;49.490;10.908;2023-07-24T11:04:05;6.57;;;5.53;;
9445;SDS011;4761;49.490;10.908;2023-07-24T11:06:32;7.28;;;5.40;;
9445;SDS011;4761;49.490;10.908;2023-07-24T11:08:58;6.35;;;5.47;;
9445;SDS011;4761;49.490;10.908;2023-07-24T11:11:28;5.85;;;5.13;;
9445;SDS011;4761;49.490;10.908;2023-07-24T11:13:55;6.85;;;5.90;;
9445;SDS011;4761;49.490;10.908;2023-07-24T11:16:20;6.07;;;5.47;;
9445;SDS011;4761;49.490;10.908;2023-07-24T11:18:46;5.40;;;4.90;;
9445;SDS011;4761;49.490;10.908;2023-07-24T11:21:14;7.40;;;5.05;;
9445;SDS011;4761;49.490;10.908;2023-07-24T11:23:51;6.65;;;5.55;;
9445;SDS011;4761;49.490;10.908;2023-07-24T11:26:22;5.65;;;5.05;;
9445;SDS011;4761;49.490;10.908;2023-07-24T11:28:49;7.75;;;5.63;;
9445;SDS011;4761;49.490;10.908;2023-07-24T11:31:15;5.60;;;5.00;;
9445;SDS011;4761;49.490;10.908;2023-07-24T11:33:44;5.85;;;5.25;;
9445;SDS011;4761;49.490;10.908;2023-07-24T11:36:09;6.72;;;5.53;;
9445;SDS011;4761;49.490;10.908;2023-07-24T11:38:36;6.55;;;5.45;;
9445;SDS011;4761;49.490;10.908;2023-07-24T11:41:03;5.82;;;5.22;;
9445;SDS011;4761;49.490;10.908;2023-07-24T11:43:29;5.28;;;4.78;;
9445;SDS011;4761;49.490;10.908;2023-07-24T11:45:54;6.30;;;5.45;;
9445;SDS011;4761;49.490;10.908;2023-07-24T11:48:21;5.75;;;5.05;;
9445;SDS011;4761;49.490;10.908;2023-07-24T11:50:49;5.68;;;5.10;;
9445;SDS011;4761;49.490;10.908;2023-07-24T11:53:20;6.07;;;5.47;;
9445;SDS011;4761;49.490;10.908;2023-07-24T11:55:54;5.68;;;5.07;;
9445;SDS011;4761;49.490;10.908;2023-07-24T11:58:27;5.80;;;5.20;;
9445;SDS011;4761;49.490;10.908;2023-07-24T12:00:53;9.27;;;5.88;;
9445;SDS011;4761;49.490;10.908;2023-07-24T12:03:21;6.28;;;5.28;;
9445;SDS011;4761;49.490;10.908;2023-07-24T12:05:47;8.85;;;5.80;;
9445;SDS011;4761;49.490;10.908;2023-07-24T12:08:12;10.00;;;5.28;;
9445;SDS011;4761;49.490;10.908;2023-07-24T12:10:39;8.88;;;5.63;;
9445;SDS011;4761;49.490;10.908;2023-07-24T12:13:05;6.90;;;5.30;;
9445;SDS011;4761;49.490;10.908;2023-07-24T12:15:32;7.47;;;5.20;;
9445;SDS011;4761;49.490;10.908;2023-07-24T12:18:02;6.45;;;4.95;;
9445;SDS011;4761;49.490;10.908;2023-07-24T12:20:29;7.32;;;4.65;;
9445;SDS011;4761;49.490;10.908;2023-07-24T12:22:55;6.50;;;5.00;;
9445;SDS011;4761;49.490;10.908;2023-07-24T12:25:20;7.32;;;4.85;;
9445;SDS011;4761;49.490;10.908;2023-07-24T12:27:46;6.22;;;4.90;;
9445;SDS011;4761;49.490;10.908;2023-07-24T12:30:13;5.90;;;4.93;;
9445;SDS011;4761;49.490;10.908;2023-07-24T12:32:38;6.50;;;4.75;;
9445;SDS011;4761;49.490;10.908;2023-07-24T12:35:04;7.07;;;4.50;;
9445;SDS011;4761;49.490;10.908;2023-07-24T12:37:30;5.95;;;4.80;;
9445;SDS011;4761;49.490;10.908;2023-07-24T12:39:56;5.25;;;4.38;;
9445;SDS011;4761;49.490;10.908;2023-07-24T12:42:21;4.82;;;4.30;;
9445;SDS011;4761;49.490;10.908;2023-07-24T12:44:48;4.57;;;4.05;;
9445;SDS011;4761;49.490;10.908;2023-07-24T12:47:13;7.72;;;4.78;;
9445;SDS011;4761;49.490;10.908;2023-07-24T12:49:39;6.68;;;4.50;;
9445;SDS011;4761;49.490;10.908;2023-07-24T12:52:05;5.20;;;4.50;;
9445;SDS011;4761;49.490;10.908;2023-07-24T12:54:31;6.20;;;4.47;;
9445;SDS011;4761;49.490;10.908;2023-07-24T12:56:57;4.75;;;4.30;;
9445;SDS011;4761;49.490;10.908;2023-07-24T12:59:22;4.57;;;3.95;;
9445;SDS011;4761;49.490;10.908;2023-07-24T13:01:48;4.93;;;4.30;;
9445;SDS011;4761;49.490;10.908;2023-07-24T13:04:14;5.63;;;4.13;;
9445;SDS011;4761;49.490;10.908;2023-07-24T13:06:39;7.03;;;4.30;;
9445;SDS011;4761;49.490;10.908;2023-07-24T13:09:05;4.47;;;4.00;;
9445;SDS011;4761;49.490;10.908;2023-07-24T13:11:31;4.93;;;4.43;;
9445;SDS011;4761;49.490;10.908;2023-07-24T13:13:56;4.57;;;4.07;;
9445;SDS011;4761;49.490;10.908;2023-07-24T13:16:22;4.47;;;4.03;;
9445;SDS011;4761;49.490;10.908;2023-07-24T13:18:48;4.35;;;3.92;;
9445;SDS011;4761;49.490;10.908;2023-07-24T13:21:14;4.53;;;4.13;;
9445;SDS011;4761;49.490;10.908;2023-07-24T13:23:40;3.92;;;3.53;;
9445;SDS011;4761;49.490;10.908;2023-07-24T13:26:06;5.22;;;4.20;;
9445;SDS011;4761;49.490;10.908;2023-07-24T13:28:35;3.90;;;3.45;;
9445;SDS011;4761;49.490;10.908;2023-07-24T13:31:16;4.57;;;4.18;;
9445;SDS011;4761;49.490;10.908;2023-07-24T13:33:43;4.47;;;4.07;;
9445;SDS011;4761;49.490;10.908;2023-07-24T13:36:09;3.67;;;3.38;;
9445;SDS011;4761;49.490;10.908;2023-07-24T13:38:35;5.55;;;4.22;;
9445;SDS011;4761;49.490;10.908;2023-07-24T13:41:01;4.22;;;3.83;;
9445;SDS011;4761;49.490;10.908;2023-07-24T13:43:27;3.65;;;3.35;;
9445;SDS011;4761;49.490;10.908;2023-07-24T13:45:53;4.03;;;3.47;;
9445;SDS011;4761;49.490;10.908;2023-07-24T13:48:18;4.05;;;3.63;;
9445;SDS011;4761;49.490;10.908;2023-07-24T13:50:44;3.95;;;3.55;;
9445;SDS011;4761;49.490;10.908;2023-07-24T13:53:09;4.03;;;3.63;;
9445;SDS011;4761;49.490;10.908;2023-07-24T13:55:35;4.45;;;3.88;;
9445;SDS011;4761;49.490;10.908;2023-07-24T13:58:01;5.00;;;3.90;;
9445;SDS011;4761;49.490;10.908;2023-07-24T14:00:26;4.43;;;3.58;;
9445;SDS011;4761;49.490;10.908;2023-07-24T14:02:52;4.78;;;3.78;;
9445;SDS011;4761;49.490;10.908;2023-07-24T14:05:17;4.53;;;3.65;;
9445;SDS011;4761;49.490;10.908;2023-07-24T14:07:43;5.45;;;4.00;;
9445;SDS011;4761;49.490;10.908;2023-07-24T14:10:09;5.32;;;3.67;;
9445;SDS011;4761;49.490;10.908;2023-07-24T14:12:35;5.20;;;3.92;;
9445;SDS011;4761;49.490;10.908;2023-07-24T14:15:01;5.20;;;3.78;;
9445;SDS011;4761;49.490;10.908;2023-07-24T14:17:26;4.50;;;3.83;;
9445;SDS011;4761;49.490;10.908;2023-07-24T14:19:52;5.95;;;4.20;;
9445;SDS011;4761;49.490;10.908;2023-07-24T14:22:18;5.10;;;3.90;;
9445;SDS011;4761;49.490;10.908;2023-07-24T14:24:43;4.72;;;3.85;;
9445;SDS011;4761;49.490;10.908;2023-07-24T14:27:09;6.30;;;3.97;;
9445;SDS011;4761;49.490;10.908;2023-07-24T14:29:34;19.35;;;5.22;;
9445;SDS011;4761;49.490;10.908;2023-07-24T14:32:00;20.05;;;5.53;;
9445;SDS011;4761;49.490;10.908;2023-07-24T14:34:25;17.50;;;6.10;;
9445;SDS011;4761;49.490;10.908;2023-07-24T14:36:51;15.52;;;5.00;;
9445;SDS011;4761;49.490;10.908;2023-07-24T14:39:17;12.90;;;5.35;;
9445;SDS011;4761;49.490;10.908;2023-07-24T14:41:43;16.10;;;5.40;;
9445;SDS011;4761;49.490;10.908;2023-07-24T14:44:08;14.40;;;5.72;;
9445;SDS011;4761;49.490;10.908;2023-07-24T14:46:35;10.45;;;5.00;;
9445;SDS011;4761;49.490;10.908;2023-07-24T14:49:01;11.43;;;5.35;;
9445;SDS011;4761;49.490;10.908;2023-07-24T14:51:26;14.00;;;5.50;;
9445;SDS011;4761;49.490;10.908;2023-07-24T14:53:52;25.65;;;6.15;;
9445;SDS011;4761;49.490;10.908;2023-07-24T14:56:17;9.93;;;4.60;;
9445;SDS011;4761;49.490;10.908;2023-07-24T14:58:44;10.75;;;4.57;;
9445;SDS011;4761;49.490;10.908;2023-07-24T15:01:10;8.45;;;4.63;;